createdAt,value
2022-11-06T00:00:41.435Z,12.18
2022-11-06T00:03:08.460Z,11.70
2022-11-06T00:05:58.135Z,11.63
2022-11-06T00:08:38.402Z,11.82
2022-11-06T00:11:15.791Z,11.27
2022-11-06T00:13:43.402Z,11.18
2022-11-06T00:16:13.012Z,11.32
2022-11-06T00:18:40.454Z,10.70
2022-11-06T00:21:19.617Z,11.30
2022-11-06T00:23:47.266Z,11.65
2022-11-06T00:26:18.286Z,10.13
2022-11-06T00:28:45.127Z,11.40
2022-11-06T00:31:15.053Z,11.38
2022-11-06T00:33:42.325Z,11.07
2022-11-06T00:36:12.668Z,10.50
2022-11-06T00:38:39.206Z,11.15
2022-11-06T00:41:17.021Z,10.95
2022-11-06T00:43:51.267Z,11.27
2022-11-06T00:46:19.058Z,10.80
2022-11-06T00:48:46.416Z,10.70
2022-11-06T00:51:19.628Z,10.88
2022-11-06T00:53:46.743Z,10.88
2022-11-06T00:56:16.531Z,11.02
2022-11-06T00:58:43.953Z,10.73
2022-11-06T01:01:19.937Z,10.32
2022-11-06T01:03:48.910Z,9.75
2022-11-06T01:06:20.329Z,10.77
2022-11-06T01:08:47.865Z,11.10
2022-11-06T01:11:52.551Z,11.80
2022-11-06T01:14:20.715Z,10.90
2022-11-06T01:16:48.460Z,10.75
2022-11-06T01:19:17.204Z,10.55
2022-11-06T01:21:45.813Z,10.75
2022-11-06T01:24:15.458Z,10.77
2022-11-06T01:26:58.444Z,10.63
2022-11-06T01:29:29.116Z,10.50
2022-11-06T01:31:55.756Z,11.27
2022-11-06T01:34:22.317Z,11.38
2022-11-06T01:36:48.839Z,13.52
2022-11-06T01:39:16.382Z,12.75
2022-11-06T01:41:49.355Z,13.23
2022-11-06T01:45:23.684Z,12.82
2022-11-06T01:47:50.292Z,14.10
2022-11-06T01:50:17.776Z,13.98
2022-11-06T01:52:46.918Z,13.20
2022-11-06T01:55:19.043Z,13.82
2022-11-06T01:57:47.005Z,13.07
2022-11-06T02:00:13.967Z,12.60
2022-11-06T02:02:40.967Z,12.23
2022-11-06T02:05:08.214Z,13.90
2022-11-06T02:07:35.883Z,13.70
2022-11-06T02:10:02.462Z,13.02
2022-11-06T02:12:40.438Z,13.68
2022-11-06T02:15:30.478Z,13.52
2022-11-06T02:18:26.364Z,14.55
2022-11-06T02:20:59.068Z,14.82
2022-11-06T02:23:35.850Z,14.70
2022-11-06T02:26:26.074Z,14.82
2022-11-06T02:29:13.839Z,13.82
2022-11-06T02:31:42.973Z,14.35
2022-11-06T02:34:14.341Z,14.45
2022-11-06T02:37:02.093Z,14.57
2022-11-06T02:39:33.035Z,14.57
2022-11-06T02:42:00.607Z,13.52
2022-11-06T02:44:31.864Z,14.48
2022-11-06T02:47:04.947Z,14.55
2022-11-06T02:49:44.139Z,15.30
2022-11-06T02:52:23.223Z,15.55
2022-11-06T02:54:57.201Z,15.40
2022-11-06T02:57:27.199Z,15.23
2022-11-06T03:00:05.508Z,16.02
2022-11-06T03:02:56.079Z,16.40
2022-11-06T03:05:36.274Z,15.40
2022-11-06T03:08:09.945Z,15.43
2022-11-06T03:11:07.389Z,15.00
2022-11-06T03:13:54.251Z,15.45
2022-11-06T03:16:57.832Z,15.55
2022-11-06T03:19:33.365Z,15.55
2022-11-06T03:22:14.662Z,16.83
2022-11-06T03:24:46.812Z,16.10
2022-11-06T03:27:20.662Z,15.85
2022-11-06T03:29:52.706Z,15.60
2022-11-06T03:32:27.874Z,16.08
2022-11-06T03:35:13.055Z,17.23
2022-11-06T03:37:47.098Z,15.30
2022-11-06T03:40:17.153Z,15.40
2022-11-06T03:42:46.354Z,16.02
2022-11-06T03:45:19.195Z,16.45
2022-11-06T03:47:53.947Z,16.10
2022-11-06T03:50:30.592Z,16.33
2022-11-06T03:53:14.447Z,16.05
2022-11-06T03:55:52.683Z,15.60
2022-11-06T03:58:24.688Z,16.42
2022-11-06T04:00:54.927Z,17.10
2022-11-06T04:03:30.168Z,16.55
2022-11-06T04:06:05.492Z,16.00
2022-11-06T04:08:51.727Z,16.58
2022-11-06T04:11:41.010Z,16.75
2022-11-06T04:14:08.465Z,16.98
2022-11-06T04:16:38.999Z,16.58
2022-11-06T04:19:19.860Z,16.48
2022-11-06T04:22:04.725Z,16.95
2022-11-06T04:25:04.105Z,16.65
2022-11-06T04:27:36.225Z,16.45
2022-11-06T04:30:14.536Z,16.20
2022-11-06T04:33:04.902Z,16.63
2022-11-06T04:35:37.238Z,16.52
2022-11-06T04:38:20.456Z,16.25
2022-11-06T04:41:18.788Z,15.57
2022-11-06T04:43:50.158Z,17.15
2022-11-06T04:46:24.242Z,17.08
2022-11-06T04:48:51.892Z,16.40
2022-11-06T04:51:23.815Z,16.63
2022-11-06T04:53:53.410Z,18.50
2022-11-06T04:56:29.496Z,17.67
2022-11-06T04:58:57.474Z,17.60
2022-11-06T05:01:24.268Z,17.15
2022-11-06T05:03:51.115Z,17.92
2022-11-06T05:06:17.826Z,18.70
2022-11-06T05:08:44.933Z,16.80
2022-11-06T05:11:11.498Z,16.60
2022-11-06T05:13:38.439Z,16.35
2022-11-06T05:16:05.780Z,17.70
2022-11-06T05:18:32.424Z,17.20
2022-11-06T05:21:19.997Z,16.63
2022-11-06T05:23:46.806Z,16.80
2022-11-06T05:26:13.640Z,16.45
2022-11-06T05:28:40.168Z,17.63
2022-11-06T05:31:06.681Z,17.88
2022-11-06T05:33:33.513Z,18.55
2022-11-06T05:36:04.289Z,17.75
2022-11-06T05:38:32.172Z,17.15
2022-11-06T05:40:58.890Z,17.67
2022-11-06T05:43:25.786Z,17.23
2022-11-06T05:45:52.771Z,17.52
2022-11-06T05:48:19.516Z,17.80
2022-11-06T05:50:46.052Z,16.23
2022-11-06T05:53:12.878Z,16.73
2022-11-06T05:55:39.436Z,15.45
2022-11-06T05:58:05.941Z,15.40
2022-11-06T06:00:32.680Z,15.63
2022-11-06T06:02:59.329Z,15.30
2022-11-06T06:05:25.908Z,15.55
2022-11-06T06:07:52.452Z,15.45
2022-11-06T06:10:18.941Z,14.55
2022-11-06T06:12:45.543Z,15.40
2022-11-06T06:15:14.948Z,15.70
2022-11-06T06:17:41.516Z,14.45
2022-11-06T06:20:08.915Z,14.45
2022-11-06T06:22:35.497Z,15.02
2022-11-06T06:25:02.329Z,14.40
2022-11-06T06:27:28.980Z,14.55
2022-11-06T06:29:55.508Z,14.68
2022-11-06T06:32:22.053Z,13.60
2022-11-06T06:34:49.239Z,14.55
2022-11-06T06:37:19.945Z,14.20
2022-11-06T06:39:47.336Z,15.00
2022-11-06T06:42:14.305Z,14.23
2022-11-06T06:44:40.928Z,13.85
2022-11-06T06:47:07.832Z,13.68
2022-11-06T06:49:35.873Z,14.18
2022-11-06T06:52:02.441Z,14.55
2022-11-06T06:54:28.979Z,14.80
2022-11-06T06:56:55.483Z,13.73
2022-11-06T06:59:22.109Z,14.60
2022-11-06T07:01:48.897Z,15.52
2022-11-06T07:04:15.485Z,15.48
2022-11-06T07:06:42.033Z,15.15
2022-11-06T07:09:09.821Z,15.30
2022-11-06T07:11:36.409Z,15.57
2022-11-06T07:14:02.951Z,15.85
2022-11-06T07:16:30.035Z,15.98
2022-11-06T07:18:56.642Z,15.95
2022-11-06T07:21:23.596Z,15.25
2022-11-06T07:23:50.741Z,15.68
2022-11-06T07:26:17.390Z,16.48
2022-11-06T07:28:43.910Z,17.27
2022-11-06T07:31:12.785Z,17.38
2022-11-06T07:33:39.650Z,18.40
2022-11-06T07:36:11.888Z,18.60
2022-11-06T07:38:40.175Z,17.80
2022-11-06T07:41:09.905Z,17.50
2022-11-06T07:43:37.043Z,17.07
2022-11-06T07:46:06.460Z,16.88
2022-11-06T07:48:33.537Z,17.08
2022-11-06T07:51:04.542Z,17.25
2022-11-06T07:53:31.445Z,16.95
2022-11-06T07:55:58.048Z,17.65
2022-11-06T07:58:25.243Z,18.55
2022-11-06T08:00:56.432Z,17.58
2022-11-06T08:03:24.846Z,18.10
2022-11-06T08:05:51.419Z,18.13
2022-11-06T08:08:18.415Z,18.42
2022-11-06T08:10:47.485Z,19.50
2022-11-06T08:13:17.919Z,18.58
2022-11-06T08:15:45.021Z,18.38
2022-11-06T08:18:12.806Z,17.95
2022-11-06T08:20:40.177Z,17.08
2022-11-06T08:23:09.083Z,17.42
2022-11-06T08:25:36.177Z,18.20
2022-11-06T08:28:04.213Z,17.40
2022-11-06T08:30:31.398Z,16.27
2022-11-06T08:33:03.941Z,16.63
2022-11-06T08:35:31.214Z,17.15
2022-11-06T08:37:57.811Z,16.23
2022-11-06T08:40:30.412Z,17.45
2022-11-06T08:43:05.953Z,17.38
2022-11-06T08:45:33.096Z,17.77
2022-11-06T08:48:03.631Z,17.60
2022-11-06T08:50:34.094Z,18.95
2022-11-06T08:53:03.999Z,16.85
2022-11-06T08:55:31.333Z,16.67
2022-11-06T08:57:58.228Z,16.75
2022-11-06T09:00:25.134Z,16.77
2022-11-06T09:02:52.071Z,17.08
2022-11-06T09:05:18.680Z,16.25
2022-11-06T09:07:45.704Z,15.52
2022-11-06T09:10:12.256Z,15.45
2022-11-06T09:12:38.898Z,14.43
2022-11-06T09:15:06.066Z,14.35
2022-11-06T09:17:32.705Z,13.48
2022-11-06T09:19:59.273Z,13.68
2022-11-06T09:22:25.940Z,14.15
2022-11-06T09:25:07.471Z,15.95
2022-11-06T09:27:43.855Z,16.25
2022-11-06T09:30:12.684Z,13.82
2022-11-06T09:32:39.436Z,11.05
2022-11-06T09:35:06.777Z,13.43
2022-11-06T09:37:33.305Z,13.70
2022-11-06T09:40:05.750Z,12.63
2022-11-06T09:43:10.331Z,13.27
2022-11-06T09:45:39.867Z,12.38
2022-11-06T09:48:17.313Z,13.60
2022-11-06T09:51:06.972Z,12.38
2022-11-06T09:53:44.446Z,11.75
2022-11-06T09:56:13.689Z,11.43
2022-11-06T09:58:44.119Z,11.02
2022-11-06T10:01:24.520Z,10.80
2022-11-06T10:04:01.918Z,9.45
2022-11-06T10:06:29.647Z,8.52
2022-11-06T10:09:01.190Z,8.57
2022-11-06T10:12:01.673Z,9.00
2022-11-06T10:14:40.386Z,8.60
2022-11-06T10:17:24.777Z,7.57
2022-11-06T10:20:04.386Z,8.20
2022-11-06T10:22:40.615Z,7.28
2022-11-06T10:25:18.296Z,6.30
2022-11-06T10:28:02.161Z,10.73
2022-11-06T10:30:45.141Z,6.50
2022-11-06T10:33:42.519Z,5.50
2022-11-06T10:36:38.569Z,5.15
2022-11-06T10:39:15.610Z,5.07
2022-11-06T10:41:47.711Z,5.20
2022-11-06T10:44:25.286Z,6.15
2022-11-06T10:47:06.557Z,5.40
2022-11-06T10:49:44.720Z,5.20
2022-11-06T10:52:30.981Z,5.10
2022-11-06T10:54:57.526Z,5.18
2022-11-06T10:57:35.933Z,5.03
2022-11-06T11:00:11.131Z,5.28
2022-11-06T11:02:43.746Z,5.55
2022-11-06T11:05:16.319Z,5.38
2022-11-06T11:07:46.006Z,5.47
2022-11-06T11:10:26.348Z,5.67
2022-11-06T11:12:55.049Z,5.45
2022-11-06T11:15:23.875Z,5.45
2022-11-06T11:18:16.464Z,5.72
2022-11-06T11:20:48.676Z,5.50
2022-11-06T11:23:15.272Z,5.32
2022-11-06T11:25:45.268Z,4.93
2022-11-06T11:28:29.442Z,5.43
2022-11-06T11:31:07.511Z,5.22
2022-11-06T11:33:35.341Z,5.13
2022-11-06T11:36:05.587Z,5.88
2022-11-06T11:38:35.207Z,4.97
2022-11-06T11:41:12.069Z,5.32
2022-11-06T11:43:38.873Z,4.95
2022-11-06T11:46:08.368Z,5.10
2022-11-06T11:48:55.970Z,4.78
2022-11-06T11:51:36.066Z,4.72
2022-11-06T11:54:07.791Z,4.95
2022-11-06T11:57:03.566Z,3.45
2022-11-06T11:59:36.658Z,3.83
2022-11-06T12:02:22.129Z,3.45
2022-11-06T12:04:55.956Z,3.20
2022-11-06T12:07:28.392Z,3.38
2022-11-06T12:09:55.337Z,3.20
2022-11-06T12:12:31.344Z,3.60
2022-11-06T12:15:14.533Z,4.63
2022-11-06T12:17:43.010Z,4.45
2022-11-06T12:20:19.385Z,4.20
2022-11-06T12:22:47.856Z,4.05
2022-11-06T12:25:39.598Z,3.15
2022-11-06T12:28:14.612Z,2.85
2022-11-06T12:30:45.481Z,2.90
2022-11-06T12:33:20.403Z,3.05
2022-11-06T12:35:53.245Z,2.72
2022-11-06T12:38:43.803Z,3.17
2022-11-06T12:41:16.578Z,2.22
2022-11-06T12:43:46.214Z,2.88
2022-11-06T12:46:46.977Z,2.15
2022-11-06T12:52:13.357Z,2.60
2022-11-06T12:55:12.169Z,3.05
2022-11-06T12:57:55.022Z,2.65
2022-11-06T13:00:31.183Z,2.30
2022-11-06T13:03:29.014Z,2.25
2022-11-06T13:05:59.489Z,2.45
2022-11-06T13:09:03.155Z,2.35
2022-11-06T13:12:03.359Z,2.25
2022-11-06T13:14:41.921Z,2.30
2022-11-06T13:17:29.056Z,1.92
2022-11-06T13:19:59.104Z,2.40
2022-11-06T13:22:34.416Z,2.33
2022-11-06T13:25:11.090Z,2.75
2022-11-06T13:28:25.256Z,2.85
2022-11-06T13:30:53.005Z,2.83
2022-11-06T13:33:26.798Z,2.22
2022-11-06T13:35:54.366Z,2.65
2022-11-06T13:38:27.210Z,2.58
2022-11-06T13:41:03.147Z,2.67
2022-11-06T13:43:42.913Z,2.65
2022-11-06T13:46:19.741Z,2.50
2022-11-06T13:49:01.244Z,2.42
2022-11-06T13:51:39.644Z,2.30
2022-11-06T13:54:29.241Z,2.40
2022-11-06T13:57:14.688Z,2.10
2022-11-06T13:59:50.348Z,2.25
2022-11-06T14:03:11.225Z,2.55
2022-11-06T14:08:08.402Z,2.35
2022-11-06T14:10:38.766Z,2.35
2022-11-06T14:13:06.778Z,3.03
2022-11-06T14:15:39.724Z,2.90
2022-11-06T14:18:06.668Z,2.78
2022-11-06T14:20:37.384Z,2.35
2022-11-06T14:23:29.147Z,2.63
2022-11-06T14:25:58.981Z,2.55
2022-11-06T14:28:39.273Z,2.10
2022-11-06T14:31:12.373Z,3.30
2022-11-06T14:33:40.830Z,2.42
2022-11-06T14:36:14.067Z,2.70
2022-11-06T14:38:42.553Z,2.80
2022-11-06T14:41:33.852Z,2.58
2022-11-06T14:44:05.668Z,2.95
2022-11-06T14:46:32.904Z,3.17
2022-11-06T14:49:21.555Z,4.15
2022-11-06T14:51:59.261Z,3.03
2022-11-06T14:54:26.063Z,2.85
2022-11-06T14:56:54.255Z,3.65
2022-11-06T14:59:38.070Z,4.65
2022-11-06T15:02:28.178Z,6.05
2022-11-06T15:05:08.050Z,6.28
2022-11-06T15:10:42.377Z,7.15
2022-11-06T15:13:18.360Z,5.70
2022-11-06T15:15:47.850Z,5.80
2022-11-06T15:18:22.713Z,5.35
2022-11-06T15:20:54.108Z,6.60
2022-11-06T15:23:24.848Z,5.75
2022-11-06T15:26:03.428Z,5.70
2022-11-06T15:28:38.909Z,5.38
2022-11-06T15:31:12.136Z,5.43
2022-11-06T15:34:00.139Z,5.30
2022-11-06T15:36:29.235Z,4.43
2022-11-06T15:38:55.803Z,4.32
2022-11-06T15:41:25.496Z,4.20
2022-11-06T15:43:55.037Z,3.87
2022-11-06T15:46:29.362Z,4.30
2022-11-06T15:49:21.676Z,4.10
2022-11-06T15:51:59.879Z,4.88
2022-11-06T15:54:41.379Z,4.90
2022-11-06T15:57:22.763Z,3.90
2022-11-06T15:59:49.986Z,3.40
2022-11-06T16:02:22.608Z,4.63
2022-11-06T16:04:50.326Z,4.40
2022-11-06T16:07:19.580Z,4.57
2022-11-06T16:09:46.727Z,4.10
2022-11-06T16:12:17.215Z,4.10
2022-11-06T16:14:45.268Z,4.10
2022-11-06T16:17:25.864Z,4.45
2022-11-06T16:19:54.981Z,3.70
2022-11-06T16:22:29.662Z,3.88
2022-11-06T16:25:04.686Z,3.75
2022-11-06T16:27:36.960Z,4.50
2022-11-06T16:30:05.162Z,3.88
2022-11-06T16:32:40.987Z,4.40
2022-11-06T16:35:30.528Z,3.97
2022-11-06T16:38:07.723Z,3.85
2022-11-06T16:40:53.956Z,4.20
2022-11-06T16:43:21.980Z,4.32
2022-11-06T16:45:59.234Z,4.32
2022-11-06T16:48:35.701Z,4.55
2022-11-06T16:51:06.081Z,4.40
2022-11-06T16:53:46.750Z,4.32
2022-11-06T16:58:54.722Z,4.55
2022-11-06T17:01:22.246Z,4.32
2022-11-06T17:04:02.559Z,5.13
2022-11-06T17:06:31.585Z,4.88
2022-11-06T17:09:29.169Z,5.55
2022-11-06T17:12:00.711Z,5.65
2022-11-06T17:14:28.189Z,4.63
2022-11-06T17:16:57.884Z,4.10
2022-11-06T17:19:26.353Z,4.80
2022-11-06T17:21:54.276Z,5.50
2022-11-06T17:24:37.605Z,4.30
2022-11-06T17:27:05.359Z,5.25
2022-11-06T17:29:33.922Z,5.60
2022-11-06T17:32:00.797Z,4.95
2022-11-06T17:34:27.518Z,5.35
2022-11-06T17:36:54.174Z,5.53
2022-11-06T17:39:20.912Z,4.65
2022-11-06T17:41:47.841Z,6.13
2022-11-06T17:44:14.771Z,6.20
2022-11-06T17:46:44.080Z,5.45
2022-11-06T17:49:17.063Z,5.80
2022-11-06T17:51:52.893Z,5.40
2022-11-06T17:54:22.106Z,5.50
2022-11-06T17:56:50.010Z,5.47
2022-11-06T17:59:16.781Z,5.75
2022-11-06T18:01:43.674Z,5.72
2022-11-06T18:04:10.571Z,6.70
2022-11-06T18:06:38.488Z,6.60
2022-11-06T18:09:07.215Z,6.32
2022-11-06T18:11:34.947Z,6.63
2022-11-06T18:14:02.598Z,6.53
2022-11-06T18:16:32.385Z,6.93
2022-11-06T18:18:59.289Z,6.93
2022-11-06T18:21:26.514Z,7.50
2022-11-06T18:23:53.228Z,7.00
2022-11-06T18:26:21.666Z,7.90
2022-11-06T18:28:49.294Z,7.25
2022-11-06T18:31:15.928Z,7.93
2022-11-06T18:33:42.735Z,7.40
2022-11-06T18:36:11.553Z,8.50
2022-11-06T18:38:38.808Z,7.57
2022-11-06T18:41:16.566Z,7.72
2022-11-06T18:43:43.919Z,7.88
2022-11-06T18:46:13.205Z,7.38
2022-11-06T18:48:40.366Z,7.47
2022-11-06T18:51:09.930Z,7.28
2022-11-06T18:53:37.301Z,12.95
2022-11-06T18:56:04.045Z,9.07
2022-11-06T18:58:31.247Z,11.90
2022-11-06T19:01:01.825Z,9.73
2022-11-06T19:03:28.776Z,8.52
2022-11-06T19:05:55.337Z,9.65
2022-11-06T19:08:21.935Z,8.68
2022-11-06T19:10:48.437Z,8.50
2022-11-06T19:13:15.076Z,7.45
2022-11-06T19:15:41.771Z,7.28
2022-11-06T19:18:08.578Z,6.95
2022-11-06T19:20:35.151Z,6.10
2022-11-06T19:23:01.686Z,6.32
2022-11-06T19:25:28.595Z,6.45
2022-11-06T19:27:56.074Z,6.25
2022-11-06T19:30:22.695Z,6.47
2022-11-06T19:32:49.279Z,6.32
2022-11-06T19:35:18.098Z,6.07
2022-11-06T19:37:44.892Z,6.45
2022-11-06T19:40:11.548Z,6.10
2022-11-06T19:42:38.144Z,6.00
2022-11-06T19:45:05.655Z,4.88
2022-11-06T19:47:34.777Z,5.72
2022-11-06T19:50:01.728Z,5.07
2022-11-06T19:52:42.365Z,5.00
2022-11-06T19:55:27.032Z,5.20
2022-11-06T19:57:57.997Z,4.82
2022-11-06T20:00:24.536Z,4.45
2022-11-06T20:02:51.392Z,4.43
2022-11-06T20:05:18.147Z,5.60
2022-11-06T20:07:44.956Z,5.05
2022-11-06T20:10:11.541Z,4.60
2022-11-06T20:12:38.183Z,4.35
2022-11-06T20:15:05.495Z,5.20
2022-11-06T20:17:32.074Z,4.55
2022-11-06T20:19:58.612Z,5.00
2022-11-06T20:22:25.443Z,4.43
2022-11-06T20:24:52.056Z,4.43
2022-11-06T20:27:18.695Z,4.55
2022-11-06T20:29:45.358Z,4.25
2022-11-06T20:32:17.677Z,4.35
2022-11-06T20:34:45.636Z,4.32
2022-11-06T20:37:12.285Z,6.20
2022-11-06T20:39:38.810Z,4.60
2022-11-06T20:42:05.270Z,5.05
2022-11-06T20:44:31.851Z,4.72
2022-11-06T20:46:59.000Z,4.85
2022-11-06T20:49:25.553Z,4.10
2022-11-06T20:52:12.590Z,3.95
2022-11-06T20:54:42.388Z,4.60
2022-11-06T20:57:12.106Z,4.60
2022-11-06T20:59:38.575Z,4.30
2022-11-06T21:02:05.309Z,4.55
2022-11-06T21:04:32.257Z,4.55
2022-11-06T21:06:58.871Z,4.68
2022-11-06T21:09:25.535Z,4.25
2022-11-06T21:11:52.104Z,4.70
2022-11-06T21:14:18.723Z,4.60
2022-11-06T21:16:45.929Z,4.60
2022-11-06T21:19:12.481Z,4.20
2022-11-06T21:21:39.620Z,4.40
2022-11-06T21:24:06.797Z,4.18
2022-11-06T21:26:36.755Z,4.65
2022-11-06T21:29:06.362Z,4.40
2022-11-06T21:31:33.676Z,4.10
2022-11-06T21:34:02.609Z,4.28
2022-11-06T21:36:31.951Z,4.28
2022-11-06T21:39:02.287Z,4.60
2022-11-06T21:41:30.565Z,4.28
2022-11-06T21:43:57.538Z,4.38
2022-11-06T21:46:24.264Z,4.13
2022-11-06T21:48:52.099Z,3.97
2022-11-06T21:51:22.064Z,4.38
2022-11-06T21:54:07.858Z,4.07
2022-11-06T21:56:35.643Z,4.43
2022-11-06T21:59:04.429Z,4.80
2022-11-06T22:01:31.752Z,4.18
2022-11-06T22:03:58.722Z,4.50
2022-11-06T22:06:26.918Z,4.90
2022-11-06T22:08:54.936Z,4.15
2022-11-06T22:11:24.303Z,4.20
2022-11-06T22:13:52.303Z,4.00
2022-11-06T22:16:22.205Z,4.22
2022-11-06T22:18:49.139Z,4.03
2022-11-06T22:21:18.674Z,3.78
2022-11-06T22:23:45.629Z,3.83
2022-11-06T22:26:14.927Z,4.15
2022-11-06T22:28:42.342Z,3.97
2022-11-06T22:31:09.190Z,3.65
2022-11-06T22:33:36.443Z,3.67
2022-11-06T22:36:23.218Z,3.72
2022-11-06T22:38:50.001Z,3.72
2022-11-06T22:41:20.198Z,3.83
2022-11-06T22:43:46.960Z,3.67
2022-11-06T22:46:18.004Z,3.60
2022-11-06T22:48:45.473Z,3.13
2022-11-06T22:51:14.604Z,3.58
2022-11-06T22:53:41.607Z,3.30
2022-11-06T22:56:09.199Z,3.13
2022-11-06T22:58:35.875Z,3.05
2022-11-06T23:01:02.474Z,4.00
2022-11-06T23:03:30.342Z,2.90
2022-11-06T23:05:58.366Z,3.10
2022-11-06T23:08:26.529Z,2.83
2022-11-06T23:10:54.476Z,3.00
2022-11-06T23:13:21.640Z,2.75
2022-11-06T23:15:48.563Z,2.72
2022-11-06T23:18:15.104Z,3.10
2022-11-06T23:20:41.975Z,2.80
2022-11-06T23:23:08.995Z,2.92
2022-11-06T23:25:35.564Z,3.10
2022-11-06T23:28:02.681Z,2.88
2022-11-06T23:30:32.325Z,2.80
2022-11-06T23:32:59.121Z,2.90
2022-11-06T23:35:32.185Z,2.80
2022-11-06T23:37:59.162Z,3.00
2022-11-06T23:40:26.093Z,3.22
2022-11-06T23:42:54.754Z,3.00
2022-11-06T23:45:40.514Z,3.13
2022-11-06T23:48:13.518Z,3.15
2022-11-06T23:50:41.270Z,3.13
2022-11-06T23:53:07.941Z,2.92
2022-11-06T23:55:34.504Z,2.95
2022-11-06T23:58:01.093Z,3.08
